sensor_id;sensor_type;location;lat;lon;timestamp;P1;durP1;ratioP1;P2;durP2;ratioP2
5608;SDS011;2826;51.354;9.588;2023-04-12T00:02:07;5.80;;;1.70;;
5608;SDS011;2826;51.354;9.588;2023-04-12T00:04:34;6.73;;;2.17;;
5608;SDS011;2826;51.354;9.588;2023-04-12T00:07:00;2.43;;;1.60;;
5608;SDS011;2826;51.354;9.588;2023-04-12T00:09:28;2.53;;;1.50;;
5608;SDS011;2826;51.354;9.588;2023-04-12T00:11:55;6.00;;;1.40;;
5608;SDS011;2826;51.354;9.588;2023-04-12T00:14:22;4.97;;;1.90;;
5608;SDS011;2826;51.354;9.588;2023-04-12T00:16:49;3.40;;;1.70;;
5608;SDS011;2826;51.354;9.588;2023-04-12T00:19:15;4.30;;;1.97;;
5608;SDS011;2826;51.354;9.588;2023-04-12T00:21:42;2.27;;;1.53;;
5608;SDS011;2826;51.354;9.588;2023-04-12T00:24:08;5.60;;;1.43;;
5608;SDS011;2826;51.354;9.588;2023-04-12T00:26:35;3.87;;;1.30;;
5608;SDS011;2826;51.354;9.588;2023-04-12T00:29:03;2.50;;;1.20;;
5608;SDS011;2826;51.354;9.588;2023-04-12T00:31:29;4.40;;;1.90;;
5608;SDS011;2826;51.354;9.588;2023-04-12T00:33:56;7.03;;;1.63;;
5608;SDS011;2826;51.354;9.588;2023-04-12T00:36:24;6.10;;;1.67;;
5608;SDS011;2826;51.354;9.588;2023-04-12T00:38:51;4.07;;;1.70;;
5608;SDS011;2826;51.354;9.588;2023-04-12T00:41:18;4.13;;;1.60;;
5608;SDS011;2826;51.354;9.588;2023-04-12T00:43:46;8.20;;;2.07;;
5608;SDS011;2826;51.354;9.588;2023-04-12T00:46:12;4.40;;;1.63;;
5608;SDS011;2826;51.354;9.588;2023-04-12T00:48:39;9.40;;;1.80;;
5608;SDS011;2826;51.354;9.588;2023-04-12T00:51:06;12.07;;;2.20;;
5608;SDS011;2826;51.354;9.588;2023-04-12T00:53:33;6.30;;;1.70;;
5608;SDS011;2826;51.354;9.588;2023-04-12T00:56:01;4.03;;;1.47;;
5608;SDS011;2826;51.354;9.588;2023-04-12T00:58:28;7.27;;;1.80;;
5608;SDS011;2826;51.354;9.588;2023-04-12T01:00:56;6.83;;;2.07;;
5608;SDS011;2826;51.354;9.588;2023-04-12T01:03:23;5.83;;;1.70;;
5608;SDS011;2826;51.354;9.588;2023-04-12T01:06:03;7.77;;;1.70;;
5608;SDS011;2826;51.354;9.588;2023-04-12T01:08:41;4.80;;;1.43;;
5608;SDS011;2826;51.354;9.588;2023-04-12T01:11:17;15.53;;;1.97;;
5608;SDS011;2826;51.354;9.588;2023-04-12T01:13:54;6.07;;;1.60;;
5608;SDS011;2826;51.354;9.588;2023-04-12T01:16:25;5.33;;;1.70;;
5608;SDS011;2826;51.354;9.588;2023-04-12T01:18:58;3.20;;;1.27;;
5608;SDS011;2826;51.354;9.588;2023-04-12T01:21:33;3.33;;;1.33;;
5608;SDS011;2826;51.354;9.588;2023-04-12T01:24:12;3.43;;;1.53;;
5608;SDS011;2826;51.354;9.588;2023-04-12T01:26:48;3.90;;;1.27;;
5608;SDS011;2826;51.354;9.588;2023-04-12T01:29:19;15.07;;;2.00;;
5608;SDS011;2826;51.354;9.588;2023-04-12T01:31:49;4.47;;;1.67;;
5608;SDS011;2826;51.354;9.588;2023-04-12T01:34:21;6.50;;;1.47;;
5608;SDS011;2826;51.354;9.588;2023-04-12T01:36:49;7.23;;;1.67;;
5608;SDS011;2826;51.354;9.588;2023-04-12T01:39:17;4.37;;;1.30;;
5608;SDS011;2826;51.354;9.588;2023-04-12T01:41:45;7.10;;;2.80;;
5608;SDS011;2826;51.354;9.588;2023-04-12T01:44:13;7.57;;;1.40;;
5608;SDS011;2826;51.354;9.588;2023-04-12T01:46:42;2.00;;;1.50;;
5608;SDS011;2826;51.354;9.588;2023-04-12T01:49:11;1.97;;;1.50;;
5608;SDS011;2826;51.354;9.588;2023-04-12T01:51:47;4.43;;;1.27;;
5608;SDS011;2826;51.354;9.588;2023-04-12T01:54:18;5.07;;;1.37;;
5608;SDS011;2826;51.354;9.588;2023-04-12T01:56:49;6.10;;;1.60;;
5608;SDS011;2826;51.354;9.588;2023-04-12T01:59:22;4.17;;;1.50;;
5608;SDS011;2826;51.354;9.588;2023-04-12T02:01:52;3.37;;;1.40;;
5608;SDS011;2826;51.354;9.588;2023-04-12T02:04:18;7.03;;;1.87;;
5608;SDS011;2826;51.354;9.588;2023-04-12T02:06:46;3.57;;;1.60;;
5608;SDS011;2826;51.354;9.588;2023-04-12T02:09:13;7.40;;;1.67;;
5608;SDS011;2826;51.354;9.588;2023-04-12T02:11:40;3.63;;;1.50;;
5608;SDS011;2826;51.354;9.588;2023-04-12T02:14:11;9.93;;;1.40;;
5608;SDS011;2826;51.354;9.588;2023-04-12T02:16:38;1.53;;;1.30;;
5608;SDS011;2826;51.354;9.588;2023-04-12T02:19:07;3.33;;;1.50;;
5608;SDS011;2826;51.354;9.588;2023-04-12T02:21:38;5.57;;;2.00;;
5608;SDS011;2826;51.354;9.588;2023-04-12T02:24:06;5.97;;;1.40;;
5608;SDS011;2826;51.354;9.588;2023-04-12T02:26:32;2.13;;;1.70;;
5608;SDS011;2826;51.354;9.588;2023-04-12T02:28:59;3.93;;;1.83;;
5608;SDS011;2826;51.354;9.588;2023-04-12T02:31:26;4.17;;;1.60;;
5608;SDS011;2826;51.354;9.588;2023-04-12T02:33:54;6.67;;;1.73;;
5608;SDS011;2826;51.354;9.588;2023-04-12T02:36:21;6.57;;;1.50;;
5608;SDS011;2826;51.354;9.588;2023-04-12T02:38:47;6.90;;;1.80;;
5608;SDS011;2826;51.354;9.588;2023-04-12T02:41:16;2.23;;;1.60;;
5608;SDS011;2826;51.354;9.588;2023-04-12T02:43:43;2.93;;;1.40;;
5608;SDS011;2826;51.354;9.588;2023-04-12T02:46:09;4.93;;;1.57;;
5608;SDS011;2826;51.354;9.588;2023-04-12T02:48:44;5.30;;;1.77;;
5608;SDS011;2826;51.354;9.588;2023-04-12T02:51:11;5.77;;;1.70;;
5608;SDS011;2826;51.354;9.588;2023-04-12T02:53:41;7.47;;;1.83;;
5608;SDS011;2826;51.354;9.588;2023-04-12T02:56:20;4.33;;;1.60;;
5608;SDS011;2826;51.354;9.588;2023-04-12T02:58:52;5.67;;;1.60;;
5608;SDS011;2826;51.354;9.588;2023-04-12T03:01:32;8.40;;;1.70;;
5608;SDS011;2826;51.354;9.588;2023-04-12T03:04:16;4.10;;;1.67;;
5608;SDS011;2826;51.354;9.588;2023-04-12T03:06:50;3.13;;;1.97;;
5608;SDS011;2826;51.354;9.588;2023-04-12T03:09:25;8.87;;;2.17;;
5608;SDS011;2826;51.354;9.588;2023-04-12T03:11:53;1.77;;;1.10;;
5608;SDS011;2826;51.354;9.588;2023-04-12T03:14:20;3.33;;;1.63;;
5608;SDS011;2826;51.354;9.588;2023-04-12T03:16:47;10.70;;;2.00;;
5608;SDS011;2826;51.354;9.588;2023-04-12T03:19:17;7.33;;;1.90;;
5608;SDS011;2826;51.354;9.588;2023-04-12T03:21:50;10.23;;;1.87;;
5608;SDS011;2826;51.354;9.588;2023-04-12T03:24:17;4.73;;;1.57;;
5608;SDS011;2826;51.354;9.588;2023-04-12T03:26:44;11.77;;;2.23;;
5608;SDS011;2826;51.354;9.588;2023-04-12T03:29:19;6.47;;;1.90;;
5608;SDS011;2826;51.354;9.588;2023-04-12T03:31:47;6.60;;;2.03;;
5608;SDS011;2826;51.354;9.588;2023-04-12T03:34:14;5.43;;;1.60;;
5608;SDS011;2826;51.354;9.588;2023-04-12T03:36:46;5.40;;;2.10;;
5608;SDS011;2826;51.354;9.588;2023-04-12T03:39:25;4.93;;;2.57;;
5608;SDS011;2826;51.354;9.588;2023-04-12T03:41:53;4.20;;;1.60;;
5608;SDS011;2826;51.354;9.588;2023-04-12T03:44:25;7.60;;;1.73;;
5608;SDS011;2826;51.354;9.588;2023-04-12T03:46:54;4.40;;;1.67;;
5608;SDS011;2826;51.354;9.588;2023-04-12T03:49:21;3.77;;;1.60;;
5608;SDS011;2826;51.354;9.588;2023-04-12T03:51:48;4.50;;;1.67;;
5608;SDS011;2826;51.354;9.588;2023-04-12T03:54:15;4.80;;;1.80;;
5608;SDS011;2826;51.354;9.588;2023-04-12T03:56:57;5.80;;;1.40;;
5608;SDS011;2826;51.354;9.588;2023-04-12T03:59:34;3.33;;;1.60;;
5608;SDS011;2826;51.354;9.588;2023-04-12T04:02:01;4.93;;;1.80;;
5608;SDS011;2826;51.354;9.588;2023-04-12T04:04:30;8.30;;;1.90;;
5608;SDS011;2826;51.354;9.588;2023-04-12T04:07:02;3.67;;;1.33;;
5608;SDS011;2826;51.354;9.588;2023-04-12T04:09:37;4.20;;;1.90;;
5608;SDS011;2826;51.354;9.588;2023-04-12T04:12:05;4.87;;;1.40;;
5608;SDS011;2826;51.354;9.588;2023-04-12T04:14:32;4.73;;;1.77;;
5608;SDS011;2826;51.354;9.588;2023-04-12T04:17:03;4.00;;;1.80;;
5608;SDS011;2826;51.354;9.588;2023-04-12T04:19:32;4.83;;;1.83;;
5608;SDS011;2826;51.354;9.588;2023-04-12T04:22:00;7.33;;;2.33;;
5608;SDS011;2826;51.354;9.588;2023-04-12T04:24:29;8.20;;;1.60;;
5608;SDS011;2826;51.354;9.588;2023-04-12T04:26:59;7.20;;;1.90;;
5608;SDS011;2826;51.354;9.588;2023-04-12T04:29:27;5.13;;;1.80;;
5608;SDS011;2826;51.354;9.588;2023-04-12T04:31:55;10.90;;;2.00;;
5608;SDS011;2826;51.354;9.588;2023-04-12T04:34:23;5.53;;;2.90;;
5608;SDS011;2826;51.354;9.588;2023-04-12T04:37:00;4.13;;;2.00;;
5608;SDS011;2826;51.354;9.588;2023-04-12T04:39:27;5.50;;;1.93;;
5608;SDS011;2826;51.354;9.588;2023-04-12T04:41:55;8.43;;;1.90;;
5608;SDS011;2826;51.354;9.588;2023-04-12T04:44:42;3.33;;;1.70;;
5608;SDS011;2826;51.354;9.588;2023-04-12T04:47:09;5.77;;;1.73;;
5608;SDS011;2826;51.354;9.588;2023-04-12T04:49:36;6.47;;;1.70;;
5608;SDS011;2826;51.354;9.588;2023-04-12T04:52:10;14.30;;;2.10;;
5608;SDS011;2826;51.354;9.588;2023-04-12T04:54:37;6.30;;;1.70;;
5608;SDS011;2826;51.354;9.588;2023-04-12T04:57:05;7.07;;;2.27;;
5608;SDS011;2826;51.354;9.588;2023-04-12T04:59:36;6.03;;;2.07;;
5608;SDS011;2826;51.354;9.588;2023-04-12T05:02:15;2.60;;;1.90;;
5608;SDS011;2826;51.354;9.588;2023-04-12T05:04:43;10.77;;;2.50;;
5608;SDS011;2826;51.354;9.588;2023-04-12T05:07:13;6.60;;;2.30;;
5608;SDS011;2826;51.354;9.588;2023-04-12T05:09:42;6.67;;;1.80;;
5608;SDS011;2826;51.354;9.588;2023-04-12T05:12:09;11.17;;;2.83;;
5608;SDS011;2826;51.354;9.588;2023-04-12T05:14:36;7.57;;;1.87;;
5608;SDS011;2826;51.354;9.588;2023-04-12T05:17:04;7.20;;;1.97;;
5608;SDS011;2826;51.354;9.588;2023-04-12T05:19:32;4.90;;;2.30;;
5608;SDS011;2826;51.354;9.588;2023-04-12T05:21:59;4.83;;;2.17;;
5608;SDS011;2826;51.354;9.588;2023-04-12T05:24:25;7.87;;;2.43;;
5608;SDS011;2826;51.354;9.588;2023-04-12T05:26:55;2.87;;;2.00;;
5608;SDS011;2826;51.354;9.588;2023-04-12T05:29:24;4.57;;;1.70;;
5608;SDS011;2826;51.354;9.588;2023-04-12T05:31:54;6.33;;;2.07;;
5608;SDS011;2826;51.354;9.588;2023-04-12T05:34:23;8.50;;;2.00;;
5608;SDS011;2826;51.354;9.588;2023-04-12T05:36:53;14.03;;;1.70;;
5608;SDS011;2826;51.354;9.588;2023-04-12T05:39:20;5.70;;;1.77;;
5608;SDS011;2826;51.354;9.588;2023-04-12T05:41:48;2.70;;;1.70;;
5608;SDS011;2826;51.354;9.588;2023-04-12T05:44:15;8.33;;;3.37;;
5608;SDS011;2826;51.354;9.588;2023-04-12T05:46:43;8.57;;;2.20;;
5608;SDS011;2826;51.354;9.588;2023-04-12T05:49:10;12.83;;;1.93;;
5608;SDS011;2826;51.354;9.588;2023-04-12T05:51:37;7.73;;;1.90;;
5608;SDS011;2826;51.354;9.588;2023-04-12T05:54:04;10.93;;;1.87;;
5608;SDS011;2826;51.354;9.588;2023-04-12T05:56:33;3.30;;;2.00;;
5608;SDS011;2826;51.354;9.588;2023-04-12T05:59:00;3.57;;;2.00;;
5608;SDS011;2826;51.354;9.588;2023-04-12T06:01:27;8.37;;;2.33;;
5608;SDS011;2826;51.354;9.588;2023-04-12T06:04:07;7.43;;;2.13;;
5608;SDS011;2826;51.354;9.588;2023-04-12T06:06:34;9.73;;;3.07;;
5608;SDS011;2826;51.354;9.588;2023-04-12T06:09:02;3.63;;;1.73;;
5608;SDS011;2826;51.354;9.588;2023-04-12T06:11:31;9.90;;;2.13;;
5608;SDS011;2826;51.354;9.588;2023-04-12T06:14:00;9.60;;;2.27;;
5608;SDS011;2826;51.354;9.588;2023-04-12T06:16:28;3.63;;;1.93;;
5608;SDS011;2826;51.354;9.588;2023-04-12T06:18:54;5.53;;;2.07;;
5608;SDS011;2826;51.354;9.588;2023-04-12T06:21:21;2.53;;;1.70;;
5608;SDS011;2826;51.354;9.588;2023-04-12T06:23:50;4.83;;;1.90;;
5608;SDS011;2826;51.354;9.588;2023-04-12T06:26:18;4.50;;;1.80;;
5608;SDS011;2826;51.354;9.588;2023-04-12T06:28:45;7.43;;;2.07;;
5608;SDS011;2826;51.354;9.588;2023-04-12T06:31:12;7.20;;;1.90;;
5608;SDS011;2826;51.354;9.588;2023-04-12T06:33:41;8.47;;;2.27;;
5608;SDS011;2826;51.354;9.588;2023-04-12T06:36:10;11.10;;;2.13;;
5608;SDS011;2826;51.354;9.588;2023-04-12T06:38:37;9.80;;;2.40;;
5608;SDS011;2826;51.354;9.588;2023-04-12T06:41:04;8.70;;;2.50;;
5608;SDS011;2826;51.354;9.588;2023-04-12T06:43:33;8.83;;;3.00;;
5608;SDS011;2826;51.354;9.588;2023-04-12T06:46:00;4.30;;;1.97;;
5608;SDS011;2826;51.354;9.588;2023-04-12T06:48:27;5.47;;;1.87;;
5608;SDS011;2826;51.354;9.588;2023-04-12T06:50:54;8.27;;;2.00;;
5608;SDS011;2826;51.354;9.588;2023-04-12T06:53:21;4.27;;;2.17;;
5608;SDS011;2826;51.354;9.588;2023-04-12T06:55:48;2.60;;;1.67;;
5608;SDS011;2826;51.354;9.588;2023-04-12T06:58:15;5.83;;;1.97;;
5608;SDS011;2826;51.354;9.588;2023-04-12T07:00:43;2.27;;;1.53;;
5608;SDS011;2826;51.354;9.588;2023-04-12T07:03:10;4.23;;;1.70;;
5608;SDS011;2826;51.354;9.588;2023-04-12T07:05:39;5.53;;;1.50;;
5608;SDS011;2826;51.354;9.588;2023-04-12T07:08:06;8.87;;;1.60;;
5608;SDS011;2826;51.354;9.588;2023-04-12T07:10:33;4.53;;;2.10;;
5608;SDS011;2826;51.354;9.588;2023-04-12T07:13:01;2.20;;;1.37;;
5608;SDS011;2826;51.354;9.588;2023-04-12T07:15:31;3.93;;;1.60;;
5608;SDS011;2826;51.354;9.588;2023-04-12T07:17:59;4.20;;;1.73;;
5608;SDS011;2826;51.354;9.588;2023-04-12T07:20:26;2.57;;;1.70;;
5608;SDS011;2826;51.354;9.588;2023-04-12T07:22:53;5.10;;;1.60;;
5608;SDS011;2826;51.354;9.588;2023-04-12T07:25:20;2.83;;;1.43;;
5608;SDS011;2826;51.354;9.588;2023-04-12T07:27:47;5.10;;;1.80;;
5608;SDS011;2826;51.354;9.588;2023-04-12T07:30:17;2.93;;;1.67;;
5608;SDS011;2826;51.354;9.588;2023-04-12T07:32:44;3.43;;;1.73;;
5608;SDS011;2826;51.354;9.588;2023-04-12T07:35:12;3.87;;;1.70;;
5608;SDS011;2826;51.354;9.588;2023-04-12T07:37:39;5.00;;;2.20;;
5608;SDS011;2826;51.354;9.588;2023-04-12T07:40:06;3.90;;;1.90;;
5608;SDS011;2826;51.354;9.588;2023-04-12T07:42:34;3.00;;;1.80;;
5608;SDS011;2826;51.354;9.588;2023-04-12T07:45:01;2.50;;;1.57;;
5608;SDS011;2826;51.354;9.588;2023-04-12T07:47:28;5.67;;;2.00;;
5608;SDS011;2826;51.354;9.588;2023-04-12T07:49:56;4.20;;;2.00;;
5608;SDS011;2826;51.354;9.588;2023-04-12T07:52:24;3.43;;;1.90;;
5608;SDS011;2826;51.354;9.588;2023-04-12T07:54:51;3.53;;;1.80;;
5608;SDS011;2826;51.354;9.588;2023-04-12T07:57:19;5.70;;;1.43;;
5608;SDS011;2826;51.354;9.588;2023-04-12T07:59:46;7.87;;;2.20;;
5608;SDS011;2826;51.354;9.588;2023-04-12T08:02:13;1.97;;;1.60;;
5608;SDS011;2826;51.354;9.588;2023-04-12T08:04:43;3.80;;;1.50;;
5608;SDS011;2826;51.354;9.588;2023-04-12T08:07:11;3.30;;;1.87;;
5608;SDS011;2826;51.354;9.588;2023-04-12T08:09:38;1.53;;;1.43;;
5608;SDS011;2826;51.354;9.588;2023-04-12T08:12:05;2.80;;;1.57;;
5608;SDS011;2826;51.354;9.588;2023-04-12T08:14:32;4.40;;;1.30;;
5608;SDS011;2826;51.354;9.588;2023-04-12T08:16:59;2.90;;;1.37;;
5608;SDS011;2826;51.354;9.588;2023-04-12T08:19:27;3.67;;;1.90;;
5608;SDS011;2826;51.354;9.588;2023-04-12T08:21:55;4.07;;;1.80;;
5608;SDS011;2826;51.354;9.588;2023-04-12T08:24:23;2.23;;;1.40;;
5608;SDS011;2826;51.354;9.588;2023-04-12T08:26:51;2.40;;;1.43;;
5608;SDS011;2826;51.354;9.588;2023-04-12T08:29:21;2.23;;;1.57;;
5608;SDS011;2826;51.354;9.588;2023-04-12T08:31:48;2.17;;;1.63;;
5608;SDS011;2826;51.354;9.588;2023-04-12T08:34:16;4.23;;;1.57;;
5608;SDS011;2826;51.354;9.588;2023-04-12T08:36:45;2.90;;;1.63;;
5608;SDS011;2826;51.354;9.588;2023-04-12T08:39:12;3.60;;;1.60;;
5608;SDS011;2826;51.354;9.588;2023-04-12T08:41:39;2.77;;;1.30;;
5608;SDS011;2826;51.354;9.588;2023-04-12T08:44:10;2.20;;;1.40;;
5608;SDS011;2826;51.354;9.588;2023-04-12T08:46:38;2.07;;;1.50;;
5608;SDS011;2826;51.354;9.588;2023-04-12T08:49:05;2.53;;;1.50;;
5608;SDS011;2826;51.354;9.588;2023-04-12T08:51:32;2.67;;;1.37;;
5608;SDS011;2826;51.354;9.588;2023-04-12T08:54:01;3.53;;;1.50;;
5608;SDS011;2826;51.354;9.588;2023-04-12T08:56:29;1.43;;;1.17;;
5608;SDS011;2826;51.354;9.588;2023-04-12T08:58:57;7.63;;;2.00;;
5608;SDS011;2826;51.354;9.588;2023-04-12T09:01:26;1.50;;;1.40;;
5608;SDS011;2826;51.354;9.588;2023-04-12T09:03:53;1.37;;;1.27;;
5608;SDS011;2826;51.354;9.588;2023-04-12T09:06:20;2.80;;;1.40;;
5608;SDS011;2826;51.354;9.588;2023-04-12T09:08:51;1.40;;;1.10;;
5608;SDS011;2826;51.354;9.588;2023-04-12T09:11:22;2.20;;;1.27;;
5608;SDS011;2826;51.354;9.588;2023-04-12T09:13:50;1.50;;;1.20;;
5608;SDS011;2826;51.354;9.588;2023-04-12T09:16:36;1.27;;;1.17;;
5608;SDS011;2826;51.354;9.588;2023-04-12T09:19:04;2.90;;;1.40;;
5608;SDS011;2826;51.354;9.588;2023-04-12T09:21:32;2.80;;;1.10;;
5608;SDS011;2826;51.354;9.588;2023-04-12T09:24:03;2.40;;;1.40;;
5608;SDS011;2826;51.354;9.588;2023-04-12T09:26:34;1.47;;;1.10;;
5608;SDS011;2826;51.354;9.588;2023-04-12T09:29:01;1.37;;;1.27;;
5608;SDS011;2826;51.354;9.588;2023-04-12T09:31:28;2.57;;;1.47;;
5608;SDS011;2826;51.354;9.588;2023-04-12T09:34:04;2.13;;;1.37;;
5608;SDS011;2826;51.354;9.588;2023-04-12T09:36:36;2.43;;;1.30;;
5608;SDS011;2826;51.354;9.588;2023-04-12T09:39:04;1.07;;;1.00;;
5608;SDS011;2826;51.354;9.588;2023-04-12T09:41:32;3.30;;;1.30;;
5608;SDS011;2826;51.354;9.588;2023-04-12T09:44:01;1.10;;;1.00;;
5608;SDS011;2826;51.354;9.588;2023-04-12T09:46:28;0.97;;;0.90;;
5608;SDS011;2826;51.354;9.588;2023-04-12T09:48:55;1.50;;;1.00;;
5608;SDS011;2826;51.354;9.588;2023-04-12T09:51:25;3.93;;;1.10;;
5608;SDS011;2826;51.354;9.588;2023-04-12T09:53:54;2.80;;;1.10;;
5608;SDS011;2826;51.354;9.588;2023-04-12T09:56:26;1.53;;;1.13;;
5608;SDS011;2826;51.354;9.588;2023-04-12T09:58:54;1.47;;;1.00;;
5608;SDS011;2826;51.354;9.588;2023-04-12T10:01:28;1.40;;;1.20;;
5608;SDS011;2826;51.354;9.588;2023-04-12T10:03:59;3.33;;;1.03;;
5608;SDS011;2826;51.354;9.588;2023-04-12T10:06:28;1.27;;;1.10;;
5608;SDS011;2826;51.354;9.588;2023-04-12T10:08:56;1.30;;;1.20;;
5608;SDS011;2826;51.354;9.588;2023-04-12T10:11:23;1.20;;;1.10;;
5608;SDS011;2826;51.354;9.588;2023-04-12T10:13:52;4.07;;;1.20;;
5608;SDS011;2826;51.354;9.588;2023-04-12T10:16:22;1.50;;;1.00;;
5608;SDS011;2826;51.354;9.588;2023-04-12T10:18:51;1.30;;;0.90;;
5608;SDS011;2826;51.354;9.588;2023-04-12T10:21:20;1.43;;;0.90;;
5608;SDS011;2826;51.354;9.588;2023-04-12T10:23:48;4.00;;;1.00;;
5608;SDS011;2826;51.354;9.588;2023-04-12T10:26:16;1.00;;;0.90;;
5608;SDS011;2826;51.354;9.588;2023-04-12T10:28:43;4.43;;;1.00;;
5608;SDS011;2826;51.354;9.588;2023-04-12T10:31:25;1.17;;;0.80;;
5608;SDS011;2826;51.354;9.588;2023-04-12T10:33:55;1.30;;;1.00;;
5608;SDS011;2826;51.354;9.588;2023-04-12T10:39:33;0.90;;;0.90;;
5608;SDS011;2826;51.354;9.588;2023-04-12T10:42:18;0.90;;;0.80;;
5608;SDS011;2826;51.354;9.588;2023-04-12T10:44:48;2.00;;;1.40;;
5608;SDS011;2826;51.354;9.588;2023-04-12T10:47:22;1.17;;;1.07;;
5608;SDS011;2826;51.354;9.588;2023-04-12T10:50:33;1.20;;;1.10;;
5608;SDS011;2826;51.354;9.588;2023-04-12T10:53:20;1.10;;;1.00;;
5608;SDS011;2826;51.354;9.588;2023-04-12T10:55:51;0.93;;;0.83;;
5608;SDS011;2826;51.354;9.588;2023-04-12T11:01:23;0.93;;;0.83;;
5608;SDS011;2826;51.354;9.588;2023-04-12T11:04:06;1.30;;;1.07;;
5608;SDS011;2826;51.354;9.588;2023-04-12T11:06:47;2.13;;;1.00;;
5608;SDS011;2826;51.354;9.588;2023-04-12T11:09:36;1.00;;;0.90;;
5608;SDS011;2826;51.354;9.588;2023-04-12T11:12:13;1.13;;;1.03;;
5608;SDS011;2826;51.354;9.588;2023-04-12T11:14:44;1.50;;;1.40;;
5608;SDS011;2826;51.354;9.588;2023-04-12T11:17:22;1.30;;;1.10;;
5608;SDS011;2826;51.354;9.588;2023-04-12T11:19:50;2.20;;;1.30;;
5608;SDS011;2826;51.354;9.588;2023-04-12T11:22:23;2.40;;;1.00;;
5608;SDS011;2826;51.354;9.588;2023-04-12T11:24:52;1.40;;;1.23;;
5608;SDS011;2826;51.354;9.588;2023-04-12T11:27:21;1.40;;;1.30;;
5608;SDS011;2826;51.354;9.588;2023-04-12T11:29:50;1.30;;;1.20;;
5608;SDS011;2826;51.354;9.588;2023-04-12T11:32:20;1.80;;;1.10;;
5608;SDS011;2826;51.354;9.588;2023-04-12T11:34:48;1.20;;;1.10;;
5608;SDS011;2826;51.354;9.588;2023-04-12T11:37:17;1.70;;;1.40;;
5608;SDS011;2826;51.354;9.588;2023-04-12T11:39:47;1.10;;;1.00;;
5608;SDS011;2826;51.354;9.588;2023-04-12T11:42:21;1.47;;;1.20;;
5608;SDS011;2826;51.354;9.588;2023-04-12T11:44:50;2.17;;;1.40;;
5608;SDS011;2826;51.354;9.588;2023-04-12T11:47:18;1.67;;;1.30;;
5608;SDS011;2826;51.354;9.588;2023-04-12T11:49:48;1.73;;;1.40;;
5608;SDS011;2826;51.354;9.588;2023-04-12T11:52:17;1.20;;;1.10;;
5608;SDS011;2826;51.354;9.588;2023-04-12T11:54:46;1.77;;;0.93;;
5608;SDS011;2826;51.354;9.588;2023-04-12T11:57:16;1.43;;;1.10;;
5608;SDS011;2826;51.354;9.588;2023-04-12T11:59:45;1.70;;;1.30;;
5608;SDS011;2826;51.354;9.588;2023-04-12T12:02:14;1.40;;;1.20;;
5608;SDS011;2826;51.354;9.588;2023-04-12T12:04:43;1.10;;;0.90;;
5608;SDS011;2826;51.354;9.588;2023-04-12T12:07:14;3.37;;;1.30;;
5608;SDS011;2826;51.354;9.588;2023-04-12T12:09:44;1.83;;;1.40;;
5608;SDS011;2826;51.354;9.588;2023-04-12T12:12:14;1.27;;;1.17;;
5608;SDS011;2826;51.354;9.588;2023-04-12T12:14:42;1.90;;;1.27;;
5608;SDS011;2826;51.354;9.588;2023-04-12T12:17:13;1.80;;;1.27;;
5608;SDS011;2826;51.354;9.588;2023-04-12T12:19:44;1.30;;;1.20;;
5608;SDS011;2826;51.354;9.588;2023-04-12T12:22:12;1.87;;;1.30;;
5608;SDS011;2826;51.354;9.588;2023-04-12T12:24:54;1.83;;;1.40;;
5608;SDS011;2826;51.354;9.588;2023-04-12T12:27:24;1.17;;;1.07;;
5608;SDS011;2826;51.354;9.588;2023-04-12T12:30:00;1.10;;;1.00;;
5608;SDS011;2826;51.354;9.588;2023-04-12T12:32:32;1.20;;;1.10;;
5608;SDS011;2826;51.354;9.588;2023-04-12T12:35:00;1.40;;;1.30;;
5608;SDS011;2826;51.354;9.588;2023-04-12T12:37:36;1.10;;;1.00;;
5608;SDS011;2826;51.354;9.588;2023-04-12T12:40:15;1.27;;;1.17;;
5608;SDS011;2826;51.354;9.588;2023-04-12T12:42:43;1.47;;;1.30;;
5608;SDS011;2826;51.354;9.588;2023-04-12T12:45:11;1.40;;;1.30;;
5608;SDS011;2826;51.354;9.588;2023-04-12T12:47:46;1.40;;;1.30;;
5608;SDS011;2826;51.354;9.588;2023-04-12T12:50:15;4.37;;;1.30;;
5608;SDS011;2826;51.354;9.588;2023-04-12T12:52:43;1.30;;;1.20;;
5608;SDS011;2826;51.354;9.588;2023-04-12T12:55:11;3.63;;;1.47;;
5608;SDS011;2826;51.354;9.588;2023-04-12T12:57:38;1.43;;;1.20;;
5608;SDS011;2826;51.354;9.588;2023-04-12T13:00:05;1.90;;;1.70;;
5608;SDS011;2826;51.354;9.588;2023-04-12T13:02:34;1.50;;;1.40;;
5608;SDS011;2826;51.354;9.588;2023-04-12T13:05:03;4.53;;;2.80;;
5608;SDS011;2826;51.354;9.588;2023-04-12T13:07:32;2.20;;;1.97;;
5608;SDS011;2826;51.354;9.588;2023-04-12T13:09:59;1.60;;;1.50;;
5608;SDS011;2826;51.354;9.588;2023-04-12T13:12:28;1.70;;;1.60;;
5608;SDS011;2826;51.354;9.588;2023-04-12T13:14:58;1.87;;;1.57;;
5608;SDS011;2826;51.354;9.588;2023-04-12T13:17:25;1.67;;;1.37;;
5608;SDS011;2826;51.354;9.588;2023-04-12T13:19:53;1.33;;;1.20;;
5608;SDS011;2826;51.354;9.588;2023-04-12T13:22:20;6.40;;;1.30;;
5608;SDS011;2826;51.354;9.588;2023-04-12T13:24:48;1.40;;;1.30;;
5608;SDS011;2826;51.354;9.588;2023-04-12T13:27:16;1.50;;;1.40;;
5608;SDS011;2826;51.354;9.588;2023-04-12T13:29:45;1.40;;;1.30;;
5608;SDS011;2826;51.354;9.588;2023-04-12T13:32:12;1.57;;;1.47;;
5608;SDS011;2826;51.354;9.588;2023-04-12T13:34:41;1.87;;;1.40;;
5608;SDS011;2826;51.354;9.588;2023-04-12T13:37:09;3.67;;;1.40;;
5608;SDS011;2826;51.354;9.588;2023-04-12T13:39:38;2.70;;;1.10;;
5608;SDS011;2826;51.354;9.588;2023-04-12T13:42:06;2.03;;;1.57;;
5608;SDS011;2826;51.354;9.588;2023-04-12T13:44:34;2.30;;;1.40;;
5608;SDS011;2826;51.354;9.588;2023-04-12T13:47:02;3.07;;;1.57;;
5608;SDS011;2826;51.354;9.588;2023-04-12T13:49:29;2.90;;;1.67;;
5608;SDS011;2826;51.354;9.588;2023-04-12T13:51:57;2.50;;;1.70;;
5608;SDS011;2826;51.354;9.588;2023-04-12T13:54:25;3.90;;;1.70;;
5608;SDS011;2826;51.354;9.588;2023-04-12T13:56:53;3.30;;;1.50;;
5608;SDS011;2826;51.354;9.588;2023-04-12T13:59:23;2.00;;;1.90;;
5608;SDS011;2826;51.354;9.588;2023-04-12T14:01:52;1.93;;;1.83;;
5608;SDS011;2826;51.354;9.588;2023-04-12T14:04:21;2.00;;;1.40;;
5608;SDS011;2826;51.354;9.588;2023-04-12T14:06:50;3.30;;;3.00;;
5608;SDS011;2826;51.354;9.588;2023-04-12T14:09:22;15.13;;;6.93;;
5608;SDS011;2826;51.354;9.588;2023-04-12T14:11:51;5.07;;;3.03;;
5608;SDS011;2826;51.354;9.588;2023-04-12T14:14:22;7.50;;;3.87;;
5608;SDS011;2826;51.354;9.588;2023-04-12T14:16:51;7.70;;;1.90;;
5608;SDS011;2826;51.354;9.588;2023-04-12T14:19:19;1.87;;;1.77;;
5608;SDS011;2826;51.354;9.588;2023-04-12T14:21:46;1.60;;;1.50;;
5608;SDS011;2826;51.354;9.588;2023-04-12T14:24:14;2.10;;;1.67;;
5608;SDS011;2826;51.354;9.588;2023-04-12T14:26:43;1.40;;;1.30;;
5608;SDS011;2826;51.354;9.588;2023-04-12T14:29:10;3.80;;;2.07;;
5608;SDS011;2826;51.354;9.588;2023-04-12T14:31:42;9.70;;;4.90;;
5608;SDS011;2826;51.354;9.588;2023-04-12T14:34:09;11.50;;;5.87;;
5608;SDS011;2826;51.354;9.588;2023-04-12T14:36:36;2.13;;;1.70;;
5608;SDS011;2826;51.354;9.588;2023-04-12T14:39:05;3.77;;;1.77;;
5608;SDS011;2826;51.354;9.588;2023-04-12T14:41:37;2.33;;;1.97;;
5608;SDS011;2826;51.354;9.588;2023-04-12T14:44:05;1.80;;;1.70;;
5608;SDS011;2826;51.354;9.588;2023-04-12T14:46:32;2.20;;;1.70;;
5608;SDS011;2826;51.354;9.588;2023-04-12T14:49:00;3.57;;;2.10;;
5608;SDS011;2826;51.354;9.588;2023-04-12T14:51:28;1.87;;;1.77;;
5608;SDS011;2826;51.354;9.588;2023-04-12T14:53:57;2.63;;;2.37;;
5608;SDS011;2826;51.354;9.588;2023-04-12T14:56:24;7.10;;;2.87;;
5608;SDS011;2826;51.354;9.588;2023-04-12T14:58:53;2.60;;;2.40;;
5608;SDS011;2826;51.354;9.588;2023-04-12T15:01:21;5.40;;;2.30;;
5608;SDS011;2826;51.354;9.588;2023-04-12T15:03:49;2.40;;;2.20;;
5608;SDS011;2826;51.354;9.588;2023-04-12T15:06:18;3.10;;;2.80;;
5608;SDS011;2826;51.354;9.588;2023-04-12T15:08:49;3.13;;;2.70;;
5608;SDS011;2826;51.354;9.588;2023-04-12T15:11:20;3.97;;;2.90;;
5608;SDS011;2826;51.354;9.588;2023-04-12T15:13:52;2.57;;;2.37;;
5608;SDS011;2826;51.354;9.588;2023-04-12T15:16:20;3.50;;;2.20;;
5608;SDS011;2826;51.354;9.588;2023-04-12T15:18:48;4.80;;;2.90;;
5608;SDS011;2826;51.354;9.588;2023-04-12T15:21:17;3.30;;;2.87;;
5608;SDS011;2826;51.354;9.588;2023-04-12T15:23:44;5.10;;;3.73;;
5608;SDS011;2826;51.354;9.588;2023-04-12T15:26:13;5.50;;;3.77;;
5608;SDS011;2826;51.354;9.588;2023-04-12T15:28:44;3.20;;;2.90;;
5608;SDS011;2826;51.354;9.588;2023-04-12T15:31:15;4.83;;;3.57;;
5608;SDS011;2826;51.354;9.588;2023-04-12T15:33:45;3.47;;;3.20;;
5608;SDS011;2826;51.354;9.588;2023-04-12T15:36:20;3.20;;;2.83;;